Tiziano — INYX — position and weather

sailwx.info

Track history (hours):
 
Tides and Currents Weather Stations Pressure Air Temp Water Temp Dewpoint Dewpoint Depression Visibility Wind Speed Wind Dir Waves Ship Positions

Tiziano

Last reported at 2018-Jul-17 07:00 UTC. Time now 2018-Jul-17 07:07 UTC.
Position N 38°08' E 013°22'.

Length 31 m; draft 3.8 m.

Type: Passenger vessel. MMSI: 247192500.

Date/timePositionNaut miles runAvg speedWind from/ knotsBaromVisibWave heightAir tempDewpointWater temp
2018-Jul-17 07:00N 38°08' E 013°22'0 0.0
2018-Jul-17 06:30N 38°08' E 013°22'5 9.8
2018-Jul-17 06:00N 38°12' E 013°24'1428.3
2018-Jul-17 05:30N 38°26' E 013°21'5 0.4
2018-Jul-16 18:36N 38°22' E 013°19'332.3
2018-Jul-16 18:31N 38°19' E 013°21'1223.4
2018-Jul-16 18:00N 38°07' E 013°23'0 0.6
2018-Jul-16 17:30N 38°07' E 013°23'1427.9
2018-Jul-16 17:01N 38°21' E 013°17'1110.6
2018-Jul-16 16:01N 38°31' E 013°14'1110.8
2018-Jul-16 14:57N 38°42' E 013°12'1430.3
2018-Jul-16 14:30N 38°29' E 013°15'1530.4
2018-Jul-16 14:01N 38°15' E 013°22'714.5
2018-Jul-16 13:30N 38°08' E 013°22'0 0.8
2018-Jul-16 13:00N 38°07' E 013°22'0 0.8
2018-Jul-16 12:30N 38°08' E 013°22'1019.1
2018-Jul-16 12:00N 38°17' E 013°22'1529.9
2018-Jul-16 11:30N 38°31' E 013°16'1 0.4
2018-Jul-16 08:32N 38°31' E 013°17'133.0
2018-Jul-16 08:30N 38°30' E 013°17'1632.5
2018-Jul-16 08:01N 38°15' E 013°25'815.2
2018-Jul-16 07:30N 38°08' E 013°22'0 0.8
2018-Jul-16 07:00N 38°07' E 013°22'0 0.5
2018-Jul-16 06:30N 38°08' E 013°22'1 2.3
2018-Jul-16 06:00N 38°08' E 013°24'1530.4
2018-Jul-16 05:30N 38°23' E 013°19'1631.7
2018-Jul-16 05:00N 38°38' E 013°13'9 0.9
2018-Jul-15 18:16N 38°30' E 013°19'830.6
2018-Jul-15 18:00N 38°22' E 013°23'1529.7
2018-Jul-15 17:30N 38°08' E 013°24'2 3.6
2018-Jul-15 17:00N 38°08' E 013°22'3 6.8
2018-Jul-15 16:30N 38°10' E 013°25'1530.6
2018-Jul-15 16:01N 38°25' E 013°20'8 5.5
2018-Jul-15 14:36N 38°33' E 013°19'330.2
2018-Jul-15 14:31N 38°30' E 013°21'1530.3
2018-Jul-15 14:00N 38°15' E 013°25'816.1
2018-Jul-15 13:31N 38°08' E 013°22'0 0.8
2018-Jul-15 13:01N 38°07' E 013°22'0 0.7
2018-Jul-15 12:30N 38°08' E 013°22'1122.2
2018-Jul-15 12:00N 38°19' E 013°22'1530.7
2018-Jul-15 11:30N 38°34' E 013°20'3 1.0
2018-Jul-15 08:34N 38°35' E 013°17'431.4
2018-Jul-15 08:25N 38°31' E 013°19'1331.0
2018-Jul-15 08:01N 38°19' E 013°24'1122.8
2018-Jul-15 07:31N 38°08' E 013°22'0 0.2
2018-Jul-15 07:00N 38°08' E 013°22'0 0.3
2018-Jul-15 06:30N 38°07' E 013°22'4 7.6
2018-Jul-15 06:00N 38°10' E 013°25'1631.1
2018-Jul-15 05:30N 38°26' E 013°23'10 0.9
2018-Jul-14 18:08N 38°34' E 013°16'432.4
2018-Jul-14 18:00N 38°30' E 013°18'1632.5
2018-Jul-14 17:31N 38°15' E 013°24'714.9
2018-Jul-14 17:01N 38°08' E 013°22'2 4.7
2018-Jul-14 16:31N 38°09' E 013°24'1631.0
2018-Jul-14 16:01N 38°24' E 013°19'1631.3
2018-Jul-14 15:29N 38°40' E 013°13'1 1.2
2018-Jul-14 14:56N 38°39' E 013°13'1431.4
2018-Jul-14 14:30N 38°26' E 013°19'1918.7
2018-Jul-14 13:31N 38°08' E 013°22'0 0.8
2018-Jul-14 13:01N 38°07' E 013°22'0 0.8
2018-Jul-14 12:30N 38°08' E 013°22'816.6
2018-Jul-14 12:01N 38°16' E 013°22'1530.5
2018-Jul-14 11:30N 38°31' E 013°16'6 2.0
2018-Jul-14 08:24N 38°37' E 013°14'1231.9
2018-Jul-14 08:01N 38°25' E 013°19'1631.4
2018-Jul-14 07:31N 38°10' E 013°25'3 6.6
2018-Jul-14 07:00N 38°08' E 013°22'0 0.5
2018-Jul-14 06:30N 38°07' E 013°22'0 0.8
2018-Jul-14 06:01N 38°07' E 013°23'1529.4
2018-Jul-14 05:31N 38°22' E 013°19'1632.0
2018-Jul-14 05:00N 38°37' E 013°14'5 0.4
2018-Jul-13 18:08N 38°33' E 013°16'432.0
2018-Jul-13 18:00N 38°29' E 013°18'1631.2
2018-Jul-13 17:30N 38°14' E 013°24'713.9
2018-Jul-13 17:00N 38°08' E 013°22'2 3.5
2018-Jul-13 16:30N 38°08' E 013°24'1530.7
2018-Jul-13 16:00N 38°23' E 013°19'1631.6
2018-Jul-13 15:30N 38°39' E 013°13'7 7.2
2018-Jul-13 14:35N 38°33' E 013°16'230.2
2018-Jul-13 14:30N 38°30' E 013°17'2323.1
2018-Jul-13 13:30N 38°08' E 013°22'0 0.8
2018-Jul-13 13:00N 38°07' E 013°22'0 0.8
2018-Jul-13 12:30N 38°08' E 013°22'714.8
2018-Jul-13 12:00N 38°15' E 013°22'1631.3
2018-Jul-13 11:29N 38°31' E 013°16'1 0.2
2018-Jul-13 08:08N 38°31' E 013°17'430.6
2018-Jul-13 08:00N 38°27' E 013°18'1429.6
2018-Jul-13 07:30N 38°13' E 013°24'612.0
2018-Jul-13 07:00N 38°08' E 013°22'0 0.8
2018-Jul-13 06:29N 38°07' E 013°22'0 0.5
2018-Jul-13 06:00N 38°07' E 013°23'1428.5
2018-Jul-13 05:30N 38°21' E 013°20'1732.6
2018-Jul-13 05:00N 38°38' E 013°14'4 0.4
2018-Jul-12 18:08N 38°34' E 013°16'430.5
2018-Jul-12 18:00N 38°30' E 013°18'1531.3
2018-Jul-12 17:31N 38°15' E 013°23'714.7
2018-Jul-12 17:00N 38°08' E 013°22'2 4.9
2018-Jul-12 16:31N 38°09' E 013°24'1631.0
2018-Jul-12 16:01N 38°24' E 013°19'1731.2
2018-Jul-12 15:29N 38°40' E 013°13'7 7.7
2018-Jul-12 14:36N 38°34' E 013°16'332.8
2018-Jul-12 14:30N 38°31' E 013°18'1632.9
2018-Jul-12 14:01N 38°15' E 013°24'815.5
2018-Jul-12 13:30N 38°08' E 013°22'0 0.8
2018-Jul-12 13:00N 38°07' E 013°22'0 0.5
2018-Jul-12 12:30N 38°08' E 013°22'713.8
2018-Jul-12 12:00N 38°14' E 013°23'1530.9
2018-Jul-12 11:31N 38°29' E 013°17'2 0.5
2018-Jul-12 08:10N 38°31' E 013°18'531.7
2018-Jul-12 08:01N 38°26' E 013°20'1530.9
2018-Jul-12 07:31N 38°11' E 013°25'4 8.5
2018-Jul-12 07:00N 38°08' E 013°22'0 0.8
2018-Jul-12 06:30N 38°07' E 013°22'0 0.9
2018-Jul-12 06:01N 38°07' E 013°23'1530.0
2018-Jul-12 05:30N 38°22' E 013°20'1732.4
2018-Jul-12 05:00N 38°38' E 013°13'10 0.9
2018-Jul-11 17:59N 38°29' E 013°19'1531.0
2018-Jul-11 17:30N 38°15' E 013°24'714.5
2018-Jul-11 17:00N 38°08' E 013°22'2 3.5
2018-Jul-11 16:30N 38°08' E 013°24'1631.5
2018-Jul-11 16:01N 38°24' E 013°21'1631.6
2018-Jul-11 15:30N 38°39' E 013°13'5 6.0
2018-Jul-11 14:39N 38°34' E 013°17'532.1
2018-Jul-11 14:29N 38°30' E 013°19'1632.3
2018-Jul-11 14:00N 38°15' E 013°25'714.8
2018-Jul-11 13:30N 38°08' E 013°22'0 0.8
2018-Jul-11 13:00N 38°07' E 013°22'0 0.8
2018-Jul-11 12:30N 38°08' E 013°22'917.8
2018-Jul-11 12:00N 38°16' E 013°23'1631.5
2018-Jul-11 11:30N 38°32' E 013°18'1 0.4
2018-Jul-11 08:11N 38°33' E 013°17'631.8
2018-Jul-11 08:00N 38°27' E 013°18'1631.5
2018-Jul-11 07:30N 38°12' E 013°24'5 9.9
2018-Jul-11 07:00N 38°08' E 013°22'0 0.8
2018-Jul-11 06:30N 38°07' E 013°22'0 0.9
2018-Jul-11 06:00N 38°07' E 013°23'1530.0
2018-Jul-11 05:30N 38°22' E 013°20'2 0.2
2018-Jul-10 17:54N 38°25' E 013°20'1333.6
2018-Jul-10 17:31N 38°12' E 013°25'510.8
2018-Jul-10 17:00N 38°08' E 013°22'1 1.9
2018-Jul-10 16:31N 38°07' E 013°23'1530.7
2018-Jul-10 16:00N 38°23' E 013°20'1732.6
2018-Jul-10 15:30N 38°38' E 013°13'4 7.5
2018-Jul-10 14:55N 38°42' E 013°12'1331.2
2018-Jul-10 14:30N 38°31' E 013°18'1632.4
2018-Jul-10 14:01N 38°16' E 013°25'816.5
2018-Jul-10 13:30N 38°08' E 013°22'0 0.8
2018-Jul-10 13:00N 38°07' E 013°22'0 0.7
2018-Jul-10 12:30N 38°08' E 013°22'713.3
2018-Jul-10 12:00N 38°14' E 013°23'1733.0
2018-Jul-10 11:30N 38°30' E 013°18'3 1.0
2018-Jul-10 08:08N 38°33' E 013°17'532.4
2018-Jul-10 07:58N 38°28' E 013°19'1531.7
2018-Jul-10 07:31N 38°14' E 013°24'713.6
2018-Jul-10 07:00N 38°08' E 013°22'0 0.8
2018-Jul-10 06:30N 38°07' E 013°22'0 0.5
2018-Jul-10 06:00N 38°07' E 013°23'1529.2
2018-Jul-10 05:31N 38°22' E 013°21'10 0.9
2018-Jul-09 18:01N 38°31' E 013°16'132.8
2018-Jul-09 18:00N 38°31' E 013°17'1632.8
2018-Jul-09 17:31N 38°15' E 013°23'815.6
2018-Jul-09 17:00N 38°08' E 013°22'1 2.3
2018-Jul-09 16:31N 38°08' E 013°23'1530.5
2018-Jul-09 16:00N 38°23' E 013°21'1731.8
2018-Jul-09 15:29N 38°39' E 013°14'6 6.3
2018-Jul-09 14:33N 38°33' E 013°16'232.8
2018-Jul-09 14:30N 38°32' E 013°17'1632.8
2018-Jul-09 14:01N 38°16' E 013°24'918.1
2018-Jul-09 13:30N 38°08' E 013°22'0 0.8
2018-Jul-09 13:00N 38°07' E 013°22'0 0.7
2018-Jul-09 12:30N 38°08' E 013°22'612.7
2018-Jul-09 12:00N 38°14' E 013°23'1632.9
2018-Jul-09 11:30N 38°30' E 013°18'2 0.7
2018-Jul-09 08:13N 38°32' E 013°17'733.1
2018-Jul-09 08:00N 38°26' E 013°19'1632.8
2018-Jul-09 07:30N 38°10' E 013°26'4 7.4
2018-Jul-09 07:00N 38°08' E 013°22'0 0.5
2018-Jul-09 06:30N 38°08' E 013°22'2 3.2
2018-Jul-09 06:00N 38°08' E 013°24'1428.7
2018-Jul-09 05:30N 38°22' E 013°21'9 0.8
2018-Jul-08 18:08N 38°32' E 013°18'433.0
2018-Jul-08 18:01N 38°28' E 013°20'1632.7
2018-Jul-08 17:31N 38°12' E 013°25'510.7
2018-Jul-08 17:00N 38°08' E 013°22'4 8.1
2018-Jul-08 16:30N 38°11' E 013°25'1529.2
2018-Jul-08 16:01N 38°25' E 013°21'1410.8
2018-Jul-08 14:41N 38°38' E 013°14'732.6
2018-Jul-08 14:29N 38°32' E 013°17'1532.6
2018-Jul-08 14:00N 38°17' E 013°23'1019.6
2018-Jul-08 13:30N 38°08' E 013°22'0 0.7
2018-Jul-08 13:00N 38°07' E 013°22'0 0.8
2018-Jul-08 12:30N 38°08' E 013°22'816.9
2018-Jul-08 12:01N 38°16' E 013°23'1530.3
2018-Jul-08 11:30N 38°31' E 013°18'2 0.5
2018-Jul-08 08:05N 38°32' E 013°17'332.4
2018-Jul-08 08:00N 38°30' E 013°18'1632.1
2018-Jul-08 07:31N 38°15' E 013°25'815.2
2018-Jul-08 07:00N 38°08' E 013°22'0 0.8
2018-Jul-08 06:30N 38°07' E 013°22'2 3.7
2018-Jul-08 06:01N 38°09' E 013°24'1530.6
2018-Jul-08 05:31N 38°24' E 013°22'4 0.3
2018-Jul-07 17:58N 38°28' E 013°21'1430.2
2018-Jul-07 17:30N 38°14' E 013°26'714.5
2018-Jul-07 17:00N 38°08' E 013°22'0 0.0
2018-Jul-07 16:30N 38°08' E 013°22'0 0.0
2018-Jul-07 16:00N 38°08' E 013°22'0 0.0
2018-Jul-07 15:30N 38°08' E 013°22'0 0.0
2018-Jul-07 15:00N 38°08' E 013°22'0 0.0
2018-Jul-07 14:30N 38°08' E 013°22'0 0.0
2018-Jul-07 14:00N 38°08' E 013°22'0 0.8
2018-Jul-07 13:30N 38°07' E 013°22'0 0.4
2018-Jul-07 13:00N 38°08' E 013°22'1019.0
2018-Jul-07 12:30N 38°17' E 013°24'1224.0
2018-Jul-07 12:00N 38°29' E 013°24'1223.3
2018-Jul-07 11:30N 38°41' E 013°26'12 4.0
2018-Jul-07 08:35N 38°30' E 013°19'331.6
2018-Jul-07 08:30N 38°28' E 013°20'1531.1
2018-Jul-07 08:01N 38°13' E 013°26'612.3
2018-Jul-07 07:30N 38°08' E 013°22'  
Track history (hours):
 
Tides and Currents Weather Stations Pressure Air Temp Water Temp Dewpoint Dewpoint Depression Visibility Wind Speed Wind Dir Waves Ship Positions

Tiziano

Last reported at 2018-Jul-17 07:00 UTC. Time now 2018-Jul-17 07:07 UTC.
Position N 38°08' E 013°22'.

Length 31 m; draft 3.8 m.

Type: Passenger vessel. MMSI: 247192500.

Date/timePositionNaut miles runAvg speedWind from/ knotsBaromVisibWave heightAir tempDewpointWater temp
2018-Jul-17 07:00N 38°08' E 013°22'0 0.0
2018-Jul-17 06:30N 38°08' E 013°22'5 9.8
2018-Jul-17 06:00N 38°12' E 013°24'1428.3
2018-Jul-17 05:30N 38°26' E 013°21'5 0.4
2018-Jul-16 18:36N 38°22' E 013°19'332.3
2018-Jul-16 18:31N 38°19' E 013°21'1223.4
2018-Jul-16 18:00N 38°07' E 013°23'0 0.6
2018-Jul-16 17:30N 38°07' E 013°23'1427.9
2018-Jul-16 17:01N 38°21' E 013°17'1110.6
2018-Jul-16 16:01N 38°31' E 013°14'1110.8
2018-Jul-16 14:57N 38°42' E 013°12'1430.3
2018-Jul-16 14:30N 38°29' E 013°15'1530.4
2018-Jul-16 14:01N 38°15' E 013°22'714.5
2018-Jul-16 13:30N 38°08' E 013°22'0 0.8
2018-Jul-16 13:00N 38°07' E 013°22'0 0.8
2018-Jul-16 12:30N 38°08' E 013°22'1019.1
2018-Jul-16 12:00N 38°17' E 013°22'1529.9
2018-Jul-16 11:30N 38°31' E 013°16'1 0.4
2018-Jul-16 08:32N 38°31' E 013°17'133.0
2018-Jul-16 08:30N 38°30' E 013°17'1632.5
2018-Jul-16 08:01N 38°15' E 013°25'815.2
2018-Jul-16 07:30N 38°08' E 013°22'0 0.8
2018-Jul-16 07:00N 38°07' E 013°22'0 0.5
2018-Jul-16 06:30N 38°08' E 013°22'1 2.3
2018-Jul-16 06:00N 38°08' E 013°24'1530.4
2018-Jul-16 05:30N 38°23' E 013°19'1631.7
2018-Jul-16 05:00N 38°38' E 013°13'9 0.9
2018-Jul-15 18:16N 38°30' E 013°19'830.6
2018-Jul-15 18:00N 38°22' E 013°23'1529.7
2018-Jul-15 17:30N 38°08' E 013°24'2 3.6
2018-Jul-15 17:00N 38°08' E 013°22'3 6.8
2018-Jul-15 16:30N 38°10' E 013°25'1530.6
2018-Jul-15 16:01N 38°25' E 013°20'8 5.5
2018-Jul-15 14:36N 38°33' E 013°19'330.2
2018-Jul-15 14:31N 38°30' E 013°21'1530.3
2018-Jul-15 14:00N 38°15' E 013°25'816.1
2018-Jul-15 13:31N 38°08' E 013°22'0 0.8
2018-Jul-15 13:01N 38°07' E 013°22'0 0.7
2018-Jul-15 12:30N 38°08' E 013°22'1122.2
2018-Jul-15 12:00N 38°19' E 013°22'1530.7
2018-Jul-15 11:30N 38°34' E 013°20'3 1.0
2018-Jul-15 08:34N 38°35' E 013°17'431.4
2018-Jul-15 08:25N 38°31' E 013°19'1331.0
2018-Jul-15 08:01N 38°19' E 013°24'1122.8
2018-Jul-15 07:31N 38°08' E 013°22'0 0.2
2018-Jul-15 07:00N 38°08' E 013°22'0 0.3
2018-Jul-15 06:30N 38°07' E 013°22'4 7.6
2018-Jul-15 06:00N 38°10' E 013°25'1631.1
2018-Jul-15 05:30N 38°26' E 013°23'10 0.9
2018-Jul-14 18:08N 38°34' E 013°16'432.4
2018-Jul-14 18:00N 38°30' E 013°18'1632.5
2018-Jul-14 17:31N 38°15' E 013°24'714.9
2018-Jul-14 17:01N 38°08' E 013°22'2 4.7
2018-Jul-14 16:31N 38°09' E 013°24'1631.0
2018-Jul-14 16:01N 38°24' E 013°19'1631.3
2018-Jul-14 15:29N 38°40' E 013°13'1 1.2
2018-Jul-14 14:56N 38°39' E 013°13'1431.4
2018-Jul-14 14:30N 38°26' E 013°19'1918.7
2018-Jul-14 13:31N 38°08' E 013°22'0 0.8
2018-Jul-14 13:01N 38°07' E 013°22'0 0.8
2018-Jul-14 12:30N 38°08' E 013°22'816.6
2018-Jul-14 12:01N 38°16' E 013°22'1530.5
2018-Jul-14 11:30N 38°31' E 013°16'6 2.0
2018-Jul-14 08:24N 38°37' E 013°14'1231.9
2018-Jul-14 08:01N 38°25' E 013°19'1631.4
2018-Jul-14 07:31N 38°10' E 013°25'3 6.6
2018-Jul-14 07:00N 38°08' E 013°22'0 0.5
2018-Jul-14 06:30N 38°07' E 013°22'0 0.8
2018-Jul-14 06:01N 38°07' E 013°23'1529.4
2018-Jul-14 05:31N 38°22' E 013°19'1632.0
2018-Jul-14 05:00N 38°37' E 013°14'5 0.4
2018-Jul-13 18:08N 38°33' E 013°16'432.0
2018-Jul-13 18:00N 38°29' E 013°18'1631.2
2018-Jul-13 17:30N 38°14' E 013°24'713.9
2018-Jul-13 17:00N 38°08' E 013°22'2 3.5
2018-Jul-13 16:30N 38°08' E 013°24'1530.7
2018-Jul-13 16:00N 38°23' E 013°19'1631.6
2018-Jul-13 15:30N 38°39' E 013°13'7 7.2
2018-Jul-13 14:35N 38°33' E 013°16'230.2
2018-Jul-13 14:30N 38°30' E 013°17'2323.1
2018-Jul-13 13:30N 38°08' E 013°22'0 0.8
2018-Jul-13 13:00N 38°07' E 013°22'0 0.8
2018-Jul-13 12:30N 38°08' E 013°22'714.8
2018-Jul-13 12:00N 38°15' E 013°22'1631.3
2018-Jul-13 11:29N 38°31' E 013°16'1 0.2
2018-Jul-13 08:08N 38°31' E 013°17'430.6
2018-Jul-13 08:00N 38°27' E 013°18'1429.6
2018-Jul-13 07:30N 38°13' E 013°24'612.0
2018-Jul-13 07:00N 38°08' E 013°22'0 0.8
2018-Jul-13 06:29N 38°07' E 013°22'0 0.5
2018-Jul-13 06:00N 38°07' E 013°23'1428.5
2018-Jul-13 05:30N 38°21' E 013°20'1732.6
2018-Jul-13 05:00N 38°38' E 013°14'4 0.4
2018-Jul-12 18:08N 38°34' E 013°16'430.5
2018-Jul-12 18:00N 38°30' E 013°18'1531.3
2018-Jul-12 17:31N 38°15' E 013°23'714.7
2018-Jul-12 17:00N 38°08' E 013°22'2 4.9
2018-Jul-12 16:31N 38°09' E 013°24'1631.0
2018-Jul-12 16:01N 38°24' E 013°19'1731.2
2018-Jul-12 15:29N 38°40' E 013°13'7 7.7
2018-Jul-12 14:36N 38°34' E 013°16'332.8
2018-Jul-12 14:30N 38°31' E 013°18'1632.9
2018-Jul-12 14:01N 38°15' E 013°24'815.5
2018-Jul-12 13:30N 38°08' E 013°22'0 0.8
2018-Jul-12 13:00N 38°07' E 013°22'0 0.5
2018-Jul-12 12:30N 38°08' E 013°22'713.8
2018-Jul-12 12:00N 38°14' E 013°23'1530.9
2018-Jul-12 11:31N 38°29' E 013°17'2 0.5
2018-Jul-12 08:10N 38°31' E 013°18'531.7
2018-Jul-12 08:01N 38°26' E 013°20'1530.9
2018-Jul-12 07:31N 38°11' E 013°25'4 8.5
2018-Jul-12 07:00N 38°08' E 013°22'0 0.8
2018-Jul-12 06:30N 38°07' E 013°22'0 0.9
2018-Jul-12 06:01N 38°07' E 013°23'1530.0
2018-Jul-12 05:30N 38°22' E 013°20'1732.4
2018-Jul-12 05:00N 38°38' E 013°13'10 0.9
2018-Jul-11 17:59N 38°29' E 013°19'1531.0
2018-Jul-11 17:30N 38°15' E 013°24'714.5
2018-Jul-11 17:00N 38°08' E 013°22'2 3.5
2018-Jul-11 16:30N 38°08' E 013°24'1631.5
2018-Jul-11 16:01N 38°24' E 013°21'1631.6
2018-Jul-11 15:30N 38°39' E 013°13'5 6.0
2018-Jul-11 14:39N 38°34' E 013°17'532.1
2018-Jul-11 14:29N 38°30' E 013°19'1632.3
2018-Jul-11 14:00N 38°15' E 013°25'714.8
2018-Jul-11 13:30N 38°08' E 013°22'0 0.8
2018-Jul-11 13:00N 38°07' E 013°22'0 0.8
2018-Jul-11 12:30N 38°08' E 013°22'917.8
2018-Jul-11 12:00N 38°16' E 013°23'1631.5
2018-Jul-11 11:30N 38°32' E 013°18'1 0.4
2018-Jul-11 08:11N 38°33' E 013°17'631.8
2018-Jul-11 08:00N 38°27' E 013°18'1631.5
2018-Jul-11 07:30N 38°12' E 013°24'5 9.9
2018-Jul-11 07:00N 38°08' E 013°22'0 0.8
2018-Jul-11 06:30N 38°07' E 013°22'0 0.9
2018-Jul-11 06:00N 38°07' E 013°23'1530.0
2018-Jul-11 05:30N 38°22' E 013°20'2 0.2
2018-Jul-10 17:54N 38°25' E 013°20'1333.6
2018-Jul-10 17:31N 38°12' E 013°25'510.8
2018-Jul-10 17:00N 38°08' E 013°22'1 1.9
2018-Jul-10 16:31N 38°07' E 013°23'1530.7
2018-Jul-10 16:00N 38°23' E 013°20'1732.6
2018-Jul-10 15:30N 38°38' E 013°13'4 7.5
2018-Jul-10 14:55N 38°42' E 013°12'1331.2
2018-Jul-10 14:30N 38°31' E 013°18'1632.4
2018-Jul-10 14:01N 38°16' E 013°25'816.5
2018-Jul-10 13:30N 38°08' E 013°22'0 0.8
2018-Jul-10 13:00N 38°07' E 013°22'0 0.7
2018-Jul-10 12:30N 38°08' E 013°22'713.3
2018-Jul-10 12:00N 38°14' E 013°23'1733.0
2018-Jul-10 11:30N 38°30' E 013°18'3 1.0
2018-Jul-10 08:08N 38°33' E 013°17'532.4
2018-Jul-10 07:58N 38°28' E 013°19'1531.7
2018-Jul-10 07:31N 38°14' E 013°24'713.6
2018-Jul-10 07:00N 38°08' E 013°22'0 0.8
2018-Jul-10 06:30N 38°07' E 013°22'0 0.5
2018-Jul-10 06:00N 38°07' E 013°23'1529.2
2018-Jul-10 05:31N 38°22' E 013°21'10 0.9
2018-Jul-09 18:01N 38°31' E 013°16'132.8
2018-Jul-09 18:00N 38°31' E 013°17'1632.8
2018-Jul-09 17:31N 38°15' E 013°23'815.6
2018-Jul-09 17:00N 38°08' E 013°22'1 2.3
2018-Jul-09 16:31N 38°08' E 013°23'1530.5
2018-Jul-09 16:00N 38°23' E 013°21'1731.8
2018-Jul-09 15:29N 38°39' E 013°14'6 6.3
2018-Jul-09 14:33N 38°33' E 013°16'232.8
2018-Jul-09 14:30N 38°32' E 013°17'1632.8
2018-Jul-09 14:01N 38°16' E 013°24'918.1
2018-Jul-09 13:30N 38°08' E 013°22'0 0.8
2018-Jul-09 13:00N 38°07' E 013°22'0 0.7
2018-Jul-09 12:30N 38°08' E 013°22'612.7
2018-Jul-09 12:00N 38°14' E 013°23'1632.9
2018-Jul-09 11:30N 38°30' E 013°18'2 0.7
2018-Jul-09 08:13N 38°32' E 013°17'733.1
2018-Jul-09 08:00N 38°26' E 013°19'1632.8
2018-Jul-09 07:30N 38°10' E 013°26'4 7.4
2018-Jul-09 07:00N 38°08' E 013°22'0 0.5
2018-Jul-09 06:30N 38°08' E 013°22'2 3.2
2018-Jul-09 06:00N 38°08' E 013°24'1428.7
2018-Jul-09 05:30N 38°22' E 013°21'9 0.8
2018-Jul-08 18:08N 38°32' E 013°18'433.0
2018-Jul-08 18:01N 38°28' E 013°20'1632.7
2018-Jul-08 17:31N 38°12' E 013°25'510.7
2018-Jul-08 17:00N 38°08' E 013°22'4 8.1
2018-Jul-08 16:30N 38°11' E 013°25'1529.2
2018-Jul-08 16:01N 38°25' E 013°21'1410.8
2018-Jul-08 14:41N 38°38' E 013°14'732.6
2018-Jul-08 14:29N 38°32' E 013°17'1532.6
2018-Jul-08 14:00N 38°17' E 013°23'1019.6
2018-Jul-08 13:30N 38°08' E 013°22'0 0.7
2018-Jul-08 13:00N 38°07' E 013°22'0 0.8
2018-Jul-08 12:30N 38°08' E 013°22'816.9
2018-Jul-08 12:01N 38°16' E 013°23'1530.3
2018-Jul-08 11:30N 38°31' E 013°18'2 0.5
2018-Jul-08 08:05N 38°32' E 013°17'332.4
2018-Jul-08 08:00N 38°30' E 013°18'1632.1
2018-Jul-08 07:31N 38°15' E 013°25'815.2
2018-Jul-08 07:00N 38°08' E 013°22'0 0.8
2018-Jul-08 06:30N 38°07' E 013°22'2 3.7
2018-Jul-08 06:01N 38°09' E 013°24'1530.6
2018-Jul-08 05:31N 38°24' E 013°22'4 0.3
2018-Jul-07 17:58N 38°28' E 013°21'1430.2
2018-Jul-07 17:30N 38°14' E 013°26'714.5
2018-Jul-07 17:00N 38°08' E 013°22'0 0.0
2018-Jul-07 16:30N 38°08' E 013°22'0 0.0
2018-Jul-07 16:00N 38°08' E 013°22'0 0.0
2018-Jul-07 15:30N 38°08' E 013°22'0 0.0
2018-Jul-07 15:00N 38°08' E 013°22'0 0.0
2018-Jul-07 14:30N 38°08' E 013°22'0 0.0
2018-Jul-07 14:00N 38°08' E 013°22'0 0.8
2018-Jul-07 13:30N 38°07' E 013°22'0 0.4
2018-Jul-07 13:00N 38°08' E 013°22'1019.0
2018-Jul-07 12:30N 38°17' E 013°24'1224.0
2018-Jul-07 12:00N 38°29' E 013°24'1223.3
2018-Jul-07 11:30N 38°41' E 013°26'12 4.0
2018-Jul-07 08:35N 38°30' E 013°19'331.6
2018-Jul-07 08:30N 38°28' E 013°20'1531.1
2018-Jul-07 08:01N 38°13' E 013°26'612.3
2018-Jul-07 07:30N 38°08' E 013°22'  

Dump ship's entire track history